Flight Track Log - Related Links

Times and Time Zones

All times are in EDT time to prevent confusion due to time zone crossing. See the VH-FVW flight status page for this flight to view local times or setup timezone preferences in your user account.

Time Position Orientation Groundspeed Altitude Reporting Facility
EDT Latitude Longitude Course Direction KTS MPH feet Rate Location/Type
Thu 12:51:02 AM -34.0365 150.5464 330° Northwest 96 110 2,900  Level Aus ATC (RADAR)
Thu 12:51:42 AM -34.0207 150.5355 330° Northwest 96 110 3,000 -160 Climbing Aus ATC (RADAR)
Thu 12:52:17 AM -34.0081 150.5447 31° Northeast 96 110 2,700 -600 Descending Aus ATC (RADAR)
Thu 12:52:52 AM -34.0124 150.5624 106° East 91 105 2,300 -686 Descending Aus ATC (RADAR)
Thu 12:56:12 AM -33.8850 150.5917 360° North 6,700 1,551 Climbing Aus ATC (Calculated)
Thu 12:57:15 AM -33.8850 150.5917 360° North 9,100 2,286 Climbing Aus ATC (Calculated)
Thu 12:57:15 AM -33.8850 150.5917 153° Southeast 9,100  Level Aus ATC (Calculated)
Thu 12:58:00 AM -33.9082 150.6059 153° Southeast  Level FlightAware Approximate
Thu 12:59:00 AM -33.9075 150.6055 153° Southeast  Level FlightAware Approximate
Thu 01:00:00 AM -33.9204 150.6135 153° Southeast  Level FlightAware Approximate
Thu 01:01:00 AM -33.9333 150.6214 153° Southeast  Level Estimated
Thu 01:02:00 AM -33.9462 150.6293 153° Southeast  Level Estimated
Thu 01:03:00 AM -33.9591 150.6372 153° Southeast  Level Estimated
Thu 01:03:39 AM -33.7583 150.7000 192° South 5,400  Level Aus ATC (Calculated)
Thu 01:04:00 AM -33.9719 150.6451 153° Southeast  Level Estimated
Thu 01:05:00 AM -33.7778 150.6991 153° Southeast  Level Estimated
Thu 01:06:00 AM -33.7923 150.6985 153° Southeast  Level Estimated
Thu 01:07:00 AM -33.8067 150.6978 153° Southeast  Level Estimated
Thu 01:08:00 AM -33.8212 150.6972 153° Southeast  Level Estimated
Thu 01:09:00 AM -33.8356 150.6965 153° Southeast  Level Estimated
Thu 01:10:00 AM -33.8501 150.6959 153° Southeast  Level Estimated
Thu 01:10:00 AM -33.8850 150.5917 153° Southeast  Level Aus ATC (Calculated)
Thu 01:11:00 AM -33.8979 150.5996 153° Southeast  Level Estimated
Thu 01:12:00 AM -33.9108 150.6075 153° Southeast  Level Estimated
Thu 01:13:00 AM -33.9236 150.6154 153° Southeast  Level Estimated
Thu 01:14:00 AM -33.9365 150.6234 153° Southeast  Level Estimated
Thu 01:15:00 AM -33.9494 150.6313 153° Southeast  Level Estimated
Thu 01:16:00 AM -33.9623 150.6392 153° Southeast  Level Estimated
Thu 01:16:40 AM -34.0402 150.6872 333° Northwest  Level Aus ATC (Calculated)
Thu 01:17:00 AM -33.9752 150.6471 153° Southeast  Level Estimated
Thu 01:18:00 AM -34.0403 150.6872 153° Southeast  Level Estimated
Thu 01:19:00 AM -34.0403 150.6872 153° Southeast  Level Estimated
Thu 01:20:00 AM -34.0403 150.6872 153° Southeast  Level Estimated
Thu 01:21:00 AM -34.0403 150.6872 153° Southeast  Level Estimated
Thu 01:22:00 AM -34.0403 150.6872 153° Southeast  Level Estimated
Thu 01:23:00 AM -34.0403 150.6872 153° Southeast  Level Estimated
Thu 01:24:00 AM -34.0403 150.6872 153° Southeast  Level Estimated

Login

Don't have an account? Register now (free) for customized features, flight alerts, and more!